Weather History for KHBI - February, 2013

Change the Weather History Date:

Thursday, February 7, 2013

  Actual Average Record
Temperature  
Mean Temperature 41 °F -  
Max Temperature 45 °F 50 °F 71 °F (2009)
Min Temperature 37 °F 30 °F 12 °F (1978)
Degree Days  
Heating Degree Days 24    
Moisture  
Dew Point 34 °F    
Average Humidity 80    
Maximum Humidity 100    
Minimum Humidity 43    
Precipitation  
Precipitation 0.23 in - - ()
Sea Level Pressure  
Sea Level Pressure 30.22 in    
Wind  
Wind Speed 4 mph (NNE)    
Max Wind Speed 12 mph    
Max Gust Speed -    
Visibility 8 miles    
Events Rain    
Averages and records for this station are not official NWS values.
T = Trace of Precipitation, MM = Missing Value Source: NWS Daily Summary

Daily Weather History Graph

Daily Weather History Graph

Search for Another Location

Airport or City:

Trip Planner

Search our weather history database for the weather conditions in past years. The results will help you decide how hot, cold, wet, or windy it might be!

Date:

Astronomy

Feb. 07, 2013 Rise Set
Actual Time 7:14 AM EST 5:53 PM EST
Civil Twilight 6:47 AM EST 6:20 PM EST
Nautical Twilight 6:17 AM EST 6:50 PM EST
Astronomical Twilight 5:47 AM EST 7:20 PM EST
Moon 4:49 AM EST (2/7) 3:19 PM EST (2/7)
Length of Visible Light 11h 32m
Length of Day
10h 39m
Waning Crescent, 9% of the Moon is Illuminated
Feb 7
Waning Crescent
Feb 10
New
Feb 17
First Quarter
Feb 25
Full
Mar 4
Last Quarter

Hourly Weather History & Observations

Time (EST) Temp. Windchill Dew Point Humidity Pressure Visibility Wind Dir Wind Speed Gust Speed Precip Events Conditions
12:15 AM 44.4 °F - 23.9 °F 44% 30.26 in 10.0 mi Calm Calm - N/A   Clear
12:35 AM 45.0 °F - 23.7 °F 43% 30.26 in 10.0 mi Calm Calm - N/A   Clear
1:15 AM 45.0 °F 43.5 °F 23.7 °F 43% 30.26 in 10.0 mi East 3.5 mph - N/A   Clear
1:35 AM 44.6 °F 41.4 °F 24.1 °F 44% 30.26 in 10.0 mi East 5.8 mph - N/A   Clear
1:55 AM 44.2 °F 42.7 °F 25.0 °F 47% 30.26 in 10.0 mi ENE 3.5 mph - N/A   Clear
2:15 AM 43.7 °F - 25.9 °F 50% 30.27 in 10.0 mi Calm Calm - N/A   Clear
2:35 AM 43.2 °F 41.5 °F 27.0 °F 53% 30.27 in 10.0 mi ENE 3.5 mph - N/A   Clear
2:55 AM 42.6 °F - 28.9 °F 58% 30.27 in 10.0 mi Calm Calm - N/A   Clear
3:15 AM 41.9 °F 40.0 °F 30.9 °F 65% 30.26 in 10.0 mi ENE 3.5 mph - N/A   Clear
3:35 AM 41.5 °F 39.6 °F 32.4 °F 70% 30.26 in 10.0 mi East 3.5 mph - N/A   Clear
3:55 AM 41.4 °F - 33.4 °F 73% 30.27 in 10.0 mi Calm Calm - N/A   Clear
4:15 AM 41.0 °F - 33.3 °F 74% 30.27 in 10.0 mi Calm Calm - N/A   Clear
4:35 AM 40.5 °F - 33.1 °F 75% 30.27 in 10.0 mi Calm Calm - N/A   Clear
4:55 AM 39.9 °F 37.8 °F 32.9 °F 76% 30.28 in 10.0 mi NE 3.5 mph - N/A   Clear
5:15 AM 39.6 °F - 33.3 °F 78% 30.30 in 10.0 mi Calm Calm - N/A   Clear
5:35 AM 39.2 °F 35.9 °F 32.9 °F 78% 30.31 in 10.0 mi North 4.6 mph - N/A   Clear
5:55 AM 38.5 °F 35.0 °F 32.5 °F 79% 30.32 in 10.0 mi NNE 4.6 mph - N/A   Clear
6:37 AM 37.4 °F 32.8 °F 33.8 °F 87% 30.32 in 10.0 mi NNE 5.8 mph - N/A   Clear
6:58 AM 37.4 °F 32.8 °F 33.8 °F 87% 30.32 in 10.0 mi NNE 5.8 mph - N/A   Clear
7:20 AM 37.4 °F 33.8 °F 33.8 °F 87% 30.32 in 10.0 mi NNE 4.6 mph - N/A   Clear
7:38 AM 37.4 °F 34.9 °F 33.8 °F 87% 30.32 in 10.0 mi NE 3.5 mph - N/A   Clear
7:58 AM 37.4 °F 32.1 °F 33.8 °F 87% 30.32 in 10.0 mi NNE 6.9 mph - N/A   Clear
8:18 AM 37.4 °F 34.9 °F 33.8 °F 87% 30.33 in 10.0 mi NNE 3.5 mph - N/A   Clear
8:37 AM 37.4 °F 31.4 °F 33.8 °F 87% 30.33 in 10.0 mi NNE 8.1 mph - N/A   Clear
9:18 AM 37.4 °F 33.8 °F 33.8 °F 87% 30.33 in 7.0 mi NNE 4.6 mph - N/A   Scattered Clouds
9:37 AM 37.4 °F 32.8 °F 33.8 °F 87% 30.32 in 7.0 mi NNE 5.8 mph - N/A   Clear
10:01 AM 37.4 °F 33.8 °F 33.8 °F 87% 30.31 in 7.0 mi NE 4.6 mph - N/A   Clear
10:18 AM 39.2 °F 33.6 °F 33.8 °F 81% 30.30 in 7.0 mi NNE 8.1 mph - N/A   Clear
10:37 AM 39.2 °F - 33.8 °F 81% 30.32 in 7.0 mi Calm Calm - N/A   Scattered Clouds
11:01 AM 39.2 °F 34.2 °F 33.8 °F 81% 30.31 in 7.0 mi NNE 6.9 mph - N/A   Mostly Cloudy
11:20 AM 39.2 °F 35.0 °F 35.6 °F 87% 30.31 in 7.0 mi NNE 5.8 mph - N/A   Overcast
11:38 AM 41.0 °F 35.8 °F 35.6 °F 81% 30.30 in 7.0 mi NNE 8.1 mph - N/A   Overcast
11:55 AM 41.0 °F 36.4 °F 34.9 °F 79% 30.29 in 7.0 mi NE 6.9 mph - N/A   Mostly Cloudy
12:15 PM 41.7 °F 38.8 °F 35.2 °F 78% 30.27 in 7.0 mi NE 4.6 mph - N/A   Scattered Clouds
12:35 PM 41.9 °F 40.0 °F 35.2 °F 77% 30.27 in 7.0 mi NE 3.5 mph - N/A   Scattered Clouds
12:55 PM 42.1 °F 39.2 °F 35.6 °F 78% 30.25 in 7.0 mi NNE 4.6 mph - N/A   Scattered Clouds
1:15 PM 42.1 °F 39.2 °F 35.4 °F 77% 30.24 in 7.0 mi NNE 4.6 mph - N/A   Scattered Clouds
1:35 PM 42.6 °F 39.0 °F 35.6 °F 76% 30.23 in 7.0 mi NNE 5.8 mph - N/A   Scattered Clouds
1:55 PM 42.8 °F 38.6 °F 35.1 °F 74% 30.23 in 7.0 mi North 6.9 mph - N/A   Clear
2:15 PM 42.8 °F 38.0 °F 34.9 °F 74% 30.22 in 7.0 mi North 8.1 mph - N/A   Clear
2:35 PM 42.8 °F 38.6 °F 34.7 °F 73% 30.22 in 10.0 mi NNE 6.9 mph - N/A   Scattered Clouds
2:55 PM 42.8 °F 38.0 °F 35.4 °F 75% 30.21 in 10.0 mi NE 8.1 mph - N/A Rain Light Rain
3:15 PM 42.3 °F 40.5 °F 36.0 °F 78% 30.21 in 7.0 mi NNE 3.5 mph - N/A Rain Light Rain
3:35 PM 41.9 °F 38.2 °F 35.6 °F 78% 30.21 in 7.0 mi NNE 5.8 mph - N/A Rain Light Rain
3:55 PM 41.9 °F 39.0 °F 35.8 °F 79% 30.21 in 10.0 mi NNE 4.6 mph - N/A Rain Light Rain
4:15 PM 41.4 °F 38.4 °F 36.0 °F 81% 30.19 in 7.0 mi NNE 4.6 mph - N/A Rain Light Rain
4:35 PM 41.2 °F 38.2 °F 36.3 °F 83% 30.19 in 7.0 mi NNE 4.6 mph - N/A Rain Light Rain
4:57 PM 41.0 °F 38.0 °F 37.4 °F 87% 30.18 in 7.0 mi NNE 4.6 mph - N/A Rain Light Rain
5:20 PM 39.2 °F 35.9 °F 37.4 °F 93% 30.17 in 7.0 mi NNE 4.6 mph - N/A Rain Light Rain
5:38 PM 39.2 °F 34.2 °F 37.4 °F 93% 30.15 in 7.0 mi NNE 6.9 mph - N/A Rain Light Rain
5:58 PM 39.2 °F 37.0 °F 37.4 °F 93% 30.15 in 10.0 mi NNE 3.5 mph - N/A Rain Rain
6:17 PM 39.2 °F 35.9 °F 37.4 °F 93% 30.14 in 10.0 mi NNE 4.6 mph - N/A   Light Drizzle
6:37 PM 39.2 °F 33.6 °F 37.4 °F 93% 30.14 in 10.0 mi North 8.1 mph - N/A   Light Drizzle
6:57 PM 39.2 °F 33.6 °F 37.4 °F 93% 30.14 in 7.0 mi NNE 8.1 mph - N/A Rain Light Rain
7:17 PM 39.2 °F 34.2 °F 37.4 °F 93% 30.13 in 7.0 mi NNE 6.9 mph - N/A Rain Light Rain
7:37 PM 39.2 °F 35.0 °F 39.2 °F 100% 30.12 in 7.0 mi NNE 5.8 mph - 0.01 in Rain Light Rain
7:57 PM 39.2 °F 33.6 °F 39.2 °F 100% 30.11 in 5.0 mi NNE 8.1 mph - 0.01 in Rain Rain
8:17 PM 41.0 °F 37.1 °F 39.2 °F 93% 30.09 in 5.0 mi NNE 5.8 mph - 0.02 in Rain Light Rain
8:37 PM 41.0 °F 37.1 °F 39.2 °F 93% 30.09 in 7.0 mi NNE 5.8 mph - 0.04 in Rain Light Rain
8:57 PM 41.0 °F 37.1 °F 39.2 °F 93% 30.09 in 5.0 mi NNE 5.8 mph - N/A Rain Light Rain
9:17 PM 41.0 °F 37.1 °F 39.2 °F 93% 30.09 in 5.0 mi NNE 5.8 mph - 0.02 in Rain Rain
9:57 PM 41.0 °F 36.4 °F 39.2 °F 93% 30.07 in 5.0 mi NNE 6.9 mph - N/A Rain Rain
10:17 PM 41.0 °F 36.4 °F 39.2 °F 93% 30.06 in 5.0 mi NNE 6.9 mph - 0.03 in Rain Rain
10:37 PM 41.0 °F 37.1 °F 39.2 °F 93% 30.05 in 5.0 mi NNE 5.8 mph - 0.06 in Rain Rain
11:17 PM 41.0 °F 34.3 °F 39.2 °F 93% 30.03 in 5.0 mi North 11.5 mph - 0.05 in Rain Rain
11:37 PM 39.2 °F 33.0 °F 39.2 °F 100% 30.02 in 5.0 mi North 9.2 mph - 0.10 in Rain Rain
11:57 PM 39.2 °F 33.0 °F 39.2 °F 100% 30.02 in 7.0 mi North 9.2 mph - 0.01 in Rain Rain